George Island, Nova Scotia

1:27 AM ADT on July 30, 2016 (GMT -0300)
Port Hawkesbury | | Change Station

Elev 374 ft 45.66 °N, 61.37 °W | Updated 27 minutes ago

Overcast
Overcast
64 °F
Feels Like 64 °F
N
0
Wind Variable Wind from North

Today
High -- | Low -- °F
--% Chance of Precip.
Yesterday
High -- | Low -- °F
Precip. -- in
Pressure 29.89 in
Visibility 9.0 miles
Clouds Scattered Clouds 7000 ft
Mostly Cloudy 18000 ft
Overcast 20000 ft
Dew Point 63 °F
Humidity 94%
Rainfall 0.00 in
Snow Depth Not available.
5:46 AM 8:33 PM
Waning Crescent, 16% visible
METAR CYPD 300400Z AUTO 00000KT 9SM SCT070 BKN180 OVC200 18/17 A2989 RMK SLP122 DENSITY ALT 800FT
Pressure 29.89 in
Visibility 9.0 miles
Clouds Scattered Clouds 7000 ft
Mostly Cloudy 18000 ft
Overcast 20000 ft
Dew Point 63 °F
Humidity 94%
Rainfall 0.00 in
Snow Depth Not available.
5:46 AM 8:33 PM
Waning Crescent, 16% visible
METAR CYPD 300400Z AUTO 00000KT 9SM SCT070 BKN180 OVC200 18/17 A2989 RMK SLP122 DENSITY ALT 800FT

10-Day Weather Forecast

Almanac

Astronomy

Jul. 30, 2016 Rise Set
Actual Time
Civil Twilight
Nautical Twilight
Astronomical Twilight
Moon
Length of Visible Light
Length of Day
Tomorrow will be .
, % of the Moon is Illuminated

Today's Extremes

Country Highs Country Lows

Community

WunderPhotos

Upload Photos

1,928,506 photos uploaded!

WunderBlog® & News

Nearby

Air Quality

  Air Quality AQ Index Pollutant
Not available.

Snow Depth

Station Depth Elevation

Earthquake Activity

City Distance Mag. Time & Date
Minimum magnitude displayed is 2.5.

Coastal Water Temperatures

Place Temperature

Stations

Nearby Weather Stations

Station Location Temp. Windchill Dew Point Humidity Wind Precip. Elev Updated Type
                   

Watches & Warnings

There are currently no watches in effect.